P&o Nedlloyd Pantanal — DDIZ — position and weather

sailwx.info

Track history (hours):
 
Tides and Currents Weather Stations Pressure Air Temp Water Temp Dewpoint Dewpoint Depression Visibility Wind Speed Wind Dir Waves Ship Positions

P&o Nedlloyd Pantanal

Last reported at 2016-May-03 00:32 UTC. Time now 2016-Jun-30 23:16 UTC.
Position S 19°43' E 057°46'.
Warning: this ship's position is 58 days out of date.

Length 207 m; draft 10.9 m.

Type: Ship (hazmat cat A). MMSI: 218646000.

Date/timePositionNaut miles runAvg speedWind from/ knotsBaromVisibWave heightAir tempDewpointWater temp
2016-May-03 00:32S 19°43' E 057°46'1414.5
2016-May-02 23:33S 19°52' E 057°34'1514.5
2016-May-02 22:33S 20°05' E 057°28'4 3.9
2016-May-02 21:32S 20°09' E 057°29'0 0.0
2016-May-02 20:32S 20°09' E 057°29'0 0.0
2016-May-02 19:29S 20°09' E 057°29'0 0.0
2016-May-02 18:32S 20°09' E 057°29'0 0.0
2016-May-02 17:32S 20°09' E 057°29'0 0.0
2016-May-02 16:32S 20°09' E 057°29'0 0.0
2016-May-02 15:32S 20°09' E 057°29'0 0.0
2016-May-02 14:32S 20°09' E 057°29'0 0.0
2016-May-02 13:32S 20°09' E 057°29'0 0.0
2016-May-02 12:29S 20°09' E 057°29'0 0.0
2016-May-02 11:32S 20°09' E 057°29'0 0.0
2016-May-02 10:32S 20°09' E 057°29'0 0.0
2016-May-02 09:32S 20°09' E 057°29'0 0.0
2016-May-02 08:32S 20°09' E 057°29'0 0.0
2016-May-02 07:32S 20°09' E 057°29'0 0.0
2016-May-02 06:32S 20°09' E 057°29'0 0.0
2016-May-02 05:32S 20°09' E 057°29'0 0.0
2016-May-02 04:32S 20°09' E 057°29'0 0.0
2016-May-02 03:32S 20°09' E 057°29'0 0.0
2016-May-02 02:32S 20°09' E 057°29'0 0.0
2016-May-02 01:32S 20°09' E 057°29'0 0.0
2016-May-02 00:32S 20°09' E 057°29'2 1.8
2016-May-01 23:33S 20°08' E 057°28'7 6.6
2016-May-01 22:34S 20°03' E 057°23'9 9.2
2016-May-01 21:33S 19°57' E 057°16'9 9.2
2016-May-01 20:33S 19°50' E 057°09'9 9.0
2016-May-01 19:33S 19°43' E 057°03'  
Track history (hours):
 
Tides and Currents Weather Stations Pressure Air Temp Water Temp Dewpoint Dewpoint Depression Visibility Wind Speed Wind Dir Waves Ship Positions

P&o Nedlloyd Pantanal

Last reported at 2016-May-03 00:32 UTC. Time now 2016-Jun-30 23:16 UTC.
Position S 19°43' E 057°46'.
Warning: this ship's position is 58 days out of date.

Length 207 m; draft 10.9 m.

Type: Ship (hazmat cat A). MMSI: 218646000.

Date/timePositionNaut miles runAvg speedWind from/ knotsBaromVisibWave heightAir tempDewpointWater temp
2016-May-03 00:32S 19°43' E 057°46'1414.5
2016-May-02 23:33S 19°52' E 057°34'1514.5
2016-May-02 22:33S 20°05' E 057°28'4 3.9
2016-May-02 21:32S 20°09' E 057°29'0 0.0
2016-May-02 20:32S 20°09' E 057°29'0 0.0
2016-May-02 19:29S 20°09' E 057°29'0 0.0
2016-May-02 18:32S 20°09' E 057°29'0 0.0
2016-May-02 17:32S 20°09' E 057°29'0 0.0
2016-May-02 16:32S 20°09' E 057°29'0 0.0
2016-May-02 15:32S 20°09' E 057°29'0 0.0
2016-May-02 14:32S 20°09' E 057°29'0 0.0
2016-May-02 13:32S 20°09' E 057°29'0 0.0
2016-May-02 12:29S 20°09' E 057°29'0 0.0
2016-May-02 11:32S 20°09' E 057°29'0 0.0
2016-May-02 10:32S 20°09' E 057°29'0 0.0
2016-May-02 09:32S 20°09' E 057°29'0 0.0
2016-May-02 08:32S 20°09' E 057°29'0 0.0
2016-May-02 07:32S 20°09' E 057°29'0 0.0
2016-May-02 06:32S 20°09' E 057°29'0 0.0
2016-May-02 05:32S 20°09' E 057°29'0 0.0
2016-May-02 04:32S 20°09' E 057°29'0 0.0
2016-May-02 03:32S 20°09' E 057°29'0 0.0
2016-May-02 02:32S 20°09' E 057°29'0 0.0
2016-May-02 01:32S 20°09' E 057°29'0 0.0
2016-May-02 00:32S 20°09' E 057°29'2 1.8
2016-May-01 23:33S 20°08' E 057°28'7 6.6
2016-May-01 22:34S 20°03' E 057°23'9 9.2
2016-May-01 21:33S 19°57' E 057°16'9 9.2
2016-May-01 20:33S 19°50' E 057°09'9 9.0
2016-May-01 19:33S 19°43' E 057°03'  

Dump ship's entire track history